createdAt,value
2018-03-17T00:00:31.742Z,0.00
2018-03-17T00:01:31.736Z,0.00
2018-03-17T00:02:31.731Z,0.00
2018-03-17T00:03:31.726Z,0.00
2018-03-17T00:04:31.721Z,0.00
2018-03-17T00:05:31.715Z,0.00
2018-03-17T00:06:31.711Z,0.00
2018-03-17T00:07:31.713Z,0.00
2018-03-17T00:08:31.702Z,0.00
2018-03-17T00:09:31.743Z,0.00
2018-03-17T00:10:31.693Z,0.00
2018-03-17T00:11:31.694Z,0.00
2018-03-17T00:12:31.682Z,0.00
2018-03-17T00:13:31.676Z,0.00
2018-03-17T00:14:31.674Z,0.00
2018-03-17T00:15:31.667Z,0.00
2018-03-17T00:16:31.665Z,0.00
2018-03-17T00:17:31.657Z,0.00
2018-03-17T00:18:31.651Z,0.00
2018-03-17T00:19:31.646Z,0.00
2018-03-17T00:20:31.643Z,0.00
2018-03-17T00:21:31.636Z,0.00
2018-03-17T00:22:31.631Z,0.00
2018-03-17T00:23:31.627Z,0.00
2018-03-17T00:24:31.622Z,0.00
2018-03-17T00:25:31.617Z,0.00
2018-03-17T00:26:31.612Z,0.00
2018-03-17T00:27:31.607Z,0.00
2018-03-17T00:28:31.603Z,0.00
2018-03-17T00:29:31.597Z,0.00
2018-03-17T00:30:31.591Z,0.00
2018-03-17T00:31:31.587Z,0.00
2018-03-17T00:32:31.583Z,0.00
2018-03-17T00:33:31.578Z,0.00
2018-03-17T00:34:31.571Z,0.00
2018-03-17T00:35:31.566Z,0.00
2018-03-17T00:36:31.561Z,0.00
2018-03-17T00:37:31.555Z,0.00
2018-03-17T00:38:31.551Z,0.00
2018-03-17T00:39:31.545Z,0.00
2018-03-17T00:40:31.542Z,0.00
2018-03-17T00:41:31.535Z,0.00
2018-03-17T00:42:31.530Z,0.00
2018-03-17T00:43:31.525Z,0.00
2018-03-17T00:44:31.519Z,0.00
2018-03-17T00:45:31.513Z,0.00
2018-03-17T00:46:31.509Z,0.00
2018-03-17T00:47:31.504Z,0.00
2018-03-17T00:48:31.498Z,0.00
2018-03-17T00:49:31.491Z,0.00
2018-03-17T00:50:31.487Z,0.00
2018-03-17T00:51:31.482Z,0.00
2018-03-17T00:52:31.476Z,0.00
2018-03-17T00:53:31.471Z,0.00
2018-03-17T00:54:31.467Z,0.00
2018-03-17T00:55:31.459Z,0.00
2018-03-17T00:56:31.457Z,0.00
2018-03-17T00:57:31.462Z,0.00
2018-03-17T00:58:31.445Z,0.00
2018-03-17T00:59:31.440Z,0.00
2018-03-17T01:00:31.435Z,0.00
2018-03-17T01:01:31.428Z,0.00
2018-03-17T01:02:31.423Z,0.00
2018-03-17T01:03:31.418Z,0.00
2018-03-17T01:04:31.413Z,0.00
2018-03-17T01:05:31.406Z,0.00
2018-03-17T01:06:31.401Z,0.00
2018-03-17T01:07:31.397Z,0.00
2018-03-17T01:08:31.392Z,0.00
2018-03-17T01:09:31.384Z,0.00
2018-03-17T01:10:31.380Z,0.00
2018-03-17T01:11:31.375Z,0.00
2018-03-17T01:12:31.373Z,0.00
2018-03-17T01:13:31.364Z,0.00
2018-03-17T01:14:31.367Z,0.00
2018-03-17T01:15:31.354Z,0.00
2018-03-17T01:16:31.349Z,0.00
2018-03-17T01:17:31.342Z,0.00
2018-03-17T01:18:31.337Z,0.00
2018-03-17T01:19:31.332Z,0.00
2018-03-17T01:20:31.328Z,0.00
2018-03-17T01:21:31.323Z,0.00
2018-03-17T01:22:31.317Z,0.00
2018-03-17T01:23:31.311Z,0.00
2018-03-17T01:24:31.306Z,0.00
2018-03-17T01:25:31.300Z,0.00
2018-03-17T01:26:31.295Z,0.00
2018-03-17T01:27:31.290Z,0.00
2018-03-17T01:28:31.286Z,0.00
2018-03-17T01:29:31.279Z,0.00
2018-03-17T01:30:31.274Z,0.00
2018-03-17T01:31:31.269Z,0.00
2018-03-17T01:32:31.264Z,0.00
2018-03-17T01:33:31.258Z,0.00
2018-03-17T01:34:31.253Z,0.00
2018-03-17T01:35:31.247Z,0.00
2018-03-17T01:36:31.243Z,0.00
2018-03-17T01:37:31.237Z,0.00
2018-03-17T01:38:31.232Z,0.00
2018-03-17T01:39:31.226Z,0.00
2018-03-17T01:40:31.221Z,0.00
2018-03-17T01:41:31.215Z,0.00
2018-03-17T01:42:31.225Z,0.00
2018-03-17T01:43:31.206Z,0.00
2018-03-17T01:44:31.199Z,0.00
2018-03-17T01:45:31.194Z,0.00
2018-03-17T01:46:31.193Z,0.00
2018-03-17T01:47:31.183Z,0.00
2018-03-17T01:48:31.178Z,0.00
2018-03-17T01:49:31.171Z,0.00
2018-03-17T01:50:31.168Z,0.00
2018-03-17T01:51:31.163Z,0.00
2018-03-17T01:52:31.158Z,0.00
2018-03-17T01:53:31.151Z,0.00
2018-03-17T01:54:31.148Z,0.00
2018-03-17T01:55:31.141Z,0.00
2018-03-17T01:56:31.136Z,0.00
2018-03-17T01:57:31.129Z,0.00
2018-03-17T01:58:31.125Z,0.00
2018-03-17T01:59:31.119Z,0.00
2018-03-17T02:00:31.114Z,0.00
2018-03-17T02:01:31.109Z,0.00
2018-03-17T02:02:31.103Z,0.00
2018-03-17T02:03:31.097Z,0.00
2018-03-17T02:04:31.093Z,0.00
2018-03-17T02:05:31.090Z,0.00
2018-03-17T02:06:31.084Z,0.00
2018-03-17T02:07:31.076Z,0.00
2018-03-17T02:08:31.072Z,0.00
2018-03-17T02:09:31.066Z,0.00
2018-03-17T02:10:31.060Z,0.00
2018-03-17T02:11:31.061Z,0.00
2018-03-17T02:12:31.048Z,0.00
2018-03-17T02:13:31.044Z,0.00
2018-03-17T02:14:31.038Z,0.00
2018-03-17T02:15:31.034Z,0.00
2018-03-17T02:16:31.028Z,0.00
2018-03-17T02:17:31.022Z,0.00
2018-03-17T02:18:31.017Z,0.00
2018-03-17T02:19:31.011Z,0.00
2018-03-17T02:20:31.007Z,0.00
2018-03-17T02:21:31.003Z,0.00
2018-03-17T02:22:30.995Z,0.00
2018-03-17T02:23:30.990Z,0.00
2018-03-17T02:24:30.985Z,0.00
2018-03-17T02:25:30.976Z,0.00
2018-03-17T02:26:30.973Z,0.00
2018-03-17T02:27:30.971Z,0.00
2018-03-17T02:28:30.962Z,0.00
2018-03-17T02:29:30.956Z,0.00
2018-03-17T02:30:30.951Z,0.00
2018-03-17T02:31:30.946Z,0.00
2018-03-17T02:32:30.940Z,0.00
2018-03-17T02:33:30.934Z,0.00
2018-03-17T02:34:30.927Z,0.00
2018-03-17T02:35:30.929Z,0.00
2018-03-17T02:36:30.916Z,0.00
2018-03-17T02:37:30.911Z,0.00
2018-03-17T02:38:30.905Z,0.00
2018-03-17T02:39:30.899Z,0.00
2018-03-17T02:40:30.895Z,0.00
2018-03-17T02:41:30.887Z,0.00
2018-03-17T02:42:30.881Z,0.00
2018-03-17T02:43:30.876Z,0.00
2018-03-17T02:44:30.870Z,0.00
2018-03-17T02:45:30.866Z,0.00
2018-03-17T02:46:30.860Z,0.00
2018-03-17T02:47:30.854Z,0.00
2018-03-17T02:48:30.848Z,0.00
2018-03-17T02:49:30.841Z,0.00
2018-03-17T02:50:30.837Z,0.00
2018-03-17T02:51:30.832Z,0.00
2018-03-17T02:52:30.829Z,0.00
2018-03-17T02:53:30.820Z,0.00
2018-03-17T02:54:30.814Z,0.00
2018-03-17T02:55:30.810Z,0.00
2018-03-17T02:56:30.805Z,0.00
2018-03-17T02:57:30.799Z,0.00
2018-03-17T02:58:30.791Z,0.00
2018-03-17T02:59:30.787Z,0.00
2018-03-17T03:00:30.782Z,0.00
2018-03-17T03:01:30.776Z,0.00
2018-03-17T03:02:30.770Z,0.00
2018-03-17T03:03:30.765Z,0.00
2018-03-17T03:04:30.760Z,0.00
2018-03-17T03:05:30.754Z,0.00
2018-03-17T03:06:30.747Z,0.00
2018-03-17T03:07:30.742Z,0.00
2018-03-17T03:08:30.739Z,0.00
2018-03-17T03:09:30.736Z,0.00
2018-03-17T03:10:30.726Z,0.00
2018-03-17T03:11:30.722Z,0.00
2018-03-17T03:12:30.716Z,0.00
2018-03-17T03:13:30.709Z,0.00
2018-03-17T03:14:30.703Z,0.00
2018-03-17T03:15:30.699Z,0.00
2018-03-17T03:16:30.693Z,0.00
2018-03-17T03:17:30.686Z,0.00
2018-03-17T03:18:30.682Z,0.00
2018-03-17T03:19:30.677Z,0.00
2018-03-17T03:20:30.672Z,0.00
2018-03-17T03:21:30.665Z,0.00
2018-03-17T03:22:30.660Z,0.00
2018-03-17T03:23:30.657Z,0.00
2018-03-17T03:24:30.649Z,0.00
2018-03-17T03:25:30.642Z,0.00
2018-03-17T03:26:30.638Z,0.00
2018-03-17T03:27:30.633Z,0.00
2018-03-17T03:28:30.627Z,0.00
2018-03-17T03:29:30.620Z,0.00
2018-03-17T03:30:30.616Z,0.00
2018-03-17T03:31:30.612Z,0.00
2018-03-17T03:32:30.604Z,0.00
2018-03-17T03:33:30.598Z,0.00
2018-03-17T03:34:30.597Z,0.00
2018-03-17T03:35:30.592Z,0.00
2018-03-17T03:36:30.582Z,0.00
2018-03-17T03:37:30.576Z,0.00
2018-03-17T03:38:30.571Z,0.00
2018-03-17T03:39:30.566Z,0.00
2018-03-17T03:40:30.560Z,0.00
2018-03-17T03:41:30.559Z,0.00
2018-03-17T03:42:30.549Z,0.00
2018-03-17T03:43:30.544Z,0.00
2018-03-17T03:44:30.539Z,0.00
2018-03-17T03:45:30.532Z,0.00
2018-03-17T03:46:30.526Z,0.00
2018-03-17T03:47:30.521Z,0.00
2018-03-17T03:48:30.517Z,0.00
2018-03-17T03:49:30.511Z,0.00
2018-03-17T03:50:30.506Z,0.00
2018-03-17T03:51:30.501Z,0.00
2018-03-17T03:52:30.496Z,0.00
2018-03-17T03:53:30.489Z,0.00
2018-03-17T03:54:30.486Z,0.00
2018-03-17T03:55:30.479Z,0.00
2018-03-17T03:56:30.473Z,0.00
2018-03-17T03:57:30.467Z,0.00
2018-03-17T03:58:30.462Z,0.00
2018-03-17T03:59:30.457Z,0.00
2018-03-17T04:00:30.451Z,0.00
2018-03-17T04:01:30.444Z,0.00
2018-03-17T04:02:30.439Z,0.00
2018-03-17T04:03:30.434Z,0.00
2018-03-17T04:04:30.428Z,0.00
2018-03-17T04:05:30.423Z,0.00
2018-03-17T04:06:30.416Z,0.00
2018-03-17T04:07:30.412Z,0.00
2018-03-17T04:08:30.407Z,0.00
2018-03-17T04:09:30.401Z,0.00
2018-03-17T04:10:30.396Z,0.00
2018-03-17T04:11:30.390Z,0.00
2018-03-17T04:12:30.385Z,0.00
2018-03-17T04:13:30.379Z,0.00
2018-03-17T04:14:30.373Z,0.00
2018-03-17T04:15:30.369Z,0.00
2018-03-17T04:16:30.363Z,0.00
2018-03-17T04:17:30.356Z,0.00
2018-03-17T04:18:30.351Z,0.00
2018-03-17T04:19:30.346Z,0.00
2018-03-17T04:20:30.341Z,0.00
2018-03-17T04:21:30.333Z,0.00
2018-03-17T04:22:30.328Z,0.00
2018-03-17T04:23:30.323Z,0.00
2018-03-17T04:24:30.319Z,0.00
2018-03-17T04:25:30.311Z,0.00
2018-03-17T04:26:30.305Z,0.00
2018-03-17T04:27:30.300Z,0.00
2018-03-17T04:28:30.296Z,0.00
2018-03-17T04:29:30.292Z,0.00
2018-03-17T04:30:30.282Z,0.00
2018-03-17T04:31:30.278Z,0.00
2018-03-17T04:32:30.273Z,0.00
2018-03-17T04:33:30.266Z,0.00
2018-03-17T04:34:30.260Z,0.00
2018-03-17T04:35:30.256Z,0.00
2018-03-17T04:36:30.249Z,0.00
2018-03-17T04:37:30.243Z,0.00
2018-03-17T04:38:30.237Z,0.00
2018-03-17T04:39:30.233Z,0.00
2018-03-17T04:40:30.227Z,0.00
2018-03-17T04:41:30.221Z,0.00
2018-03-17T04:42:30.215Z,0.00
2018-03-17T04:43:30.210Z,0.00
2018-03-17T04:44:30.203Z,0.00
2018-03-17T04:45:30.198Z,0.00
2018-03-17T04:46:30.194Z,0.00
2018-03-17T04:47:30.188Z,0.00
2018-03-17T04:48:30.211Z,0.00
2018-03-17T04:49:30.175Z,0.00
2018-03-17T04:50:30.170Z,0.00
2018-03-17T04:51:30.163Z,0.00
2018-03-17T04:52:30.158Z,0.00
2018-03-17T04:53:30.152Z,0.00
2018-03-17T04:54:30.147Z,0.00
2018-03-17T04:55:30.141Z,0.00
2018-03-17T04:56:30.135Z,0.00
2018-03-17T04:57:30.133Z,0.00
2018-03-17T04:58:30.124Z,0.00
2018-03-17T04:59:30.117Z,0.00
2018-03-17T05:00:30.113Z,4.00
2018-03-17T05:01:30.107Z,4.00
2018-03-17T05:02:30.102Z,4.00
2018-03-17T05:03:30.099Z,0.00
2018-03-17T05:04:30.091Z,4.00
2018-03-17T05:05:30.085Z,4.00
2018-03-17T05:06:30.079Z,4.00
2018-03-17T05:07:30.074Z,8.00
2018-03-17T05:08:30.068Z,8.00
2018-03-17T05:09:30.061Z,8.00
2018-03-17T05:10:30.057Z,8.00
2018-03-17T05:11:30.051Z,12.00
2018-03-17T05:12:30.046Z,12.00
2018-03-17T05:13:30.040Z,16.00
2018-03-17T05:14:30.034Z,20.00
2018-03-17T05:15:30.029Z,24.00
2018-03-17T05:16:30.024Z,28.00
2018-03-17T05:17:30.017Z,32.00
2018-03-17T05:18:30.012Z,36.00
2018-03-17T05:19:30.007Z,40.00
2018-03-17T05:20:30.001Z,48.00
2018-03-17T05:21:29.993Z,52.00
2018-03-17T05:22:29.988Z,60.00
2018-03-17T05:23:29.983Z,68.00
2018-03-17T05:24:29.977Z,72.00
2018-03-17T05:25:29.970Z,80.00
2018-03-17T05:26:29.964Z,92.00
2018-03-17T05:27:29.960Z,100.00
2018-03-17T05:28:29.953Z,112.00
2018-03-17T05:29:29.947Z,124.00
2018-03-17T05:30:29.942Z,136.00
2018-03-17T05:31:29.937Z,152.00
2018-03-17T05:32:29.930Z,168.00
2018-03-17T05:33:29.924Z,180.00
2018-03-17T05:34:29.920Z,200.00
2018-03-17T05:35:29.952Z,216.00
2018-03-17T05:36:29.907Z,236.00
2018-03-17T05:37:29.903Z,256.00
2018-03-17T05:38:29.900Z,276.00
2018-03-17T05:39:29.890Z,292.00
2018-03-17T05:40:29.885Z,308.00
2018-03-17T05:41:29.878Z,324.00
2018-03-17T05:42:29.873Z,336.00
2018-03-17T05:43:29.868Z,352.00
2018-03-17T05:44:29.863Z,364.00
2018-03-17T05:45:29.856Z,384.00
2018-03-17T05:46:29.850Z,412.00
2018-03-17T05:47:29.844Z,440.00
2018-03-17T05:48:29.838Z,476.00
2018-03-17T05:49:29.833Z,512.00
2018-03-17T05:50:29.827Z,548.00
2018-03-17T05:51:29.822Z,584.00
2018-03-17T05:52:29.817Z,612.00
2018-03-17T05:53:29.810Z,636.00
2018-03-17T05:54:29.803Z,668.00
2018-03-17T05:55:29.799Z,696.00
2018-03-17T05:56:29.793Z,728.00
2018-03-17T05:57:29.788Z,760.00
2018-03-17T05:58:29.781Z,792.00
2018-03-17T05:59:29.775Z,820.00
2018-03-17T06:00:29.771Z,852.00
2018-03-17T06:01:29.764Z,892.00
2018-03-17T06:02:29.759Z,936.00
2018-03-17T06:03:29.753Z,988.00
2018-03-17T06:04:29.749Z,1044.00
2018-03-17T06:05:29.742Z,1104.00
2018-03-17T06:06:29.737Z,1184.00
2018-03-17T06:07:29.733Z,1276.00
2018-03-17T06:08:29.726Z,1364.00
2018-03-17T06:09:29.719Z,1440.00
2018-03-17T06:10:29.714Z,1536.00
2018-03-17T06:11:29.707Z,1632.00
2018-03-17T06:12:29.703Z,1780.00
2018-03-17T06:13:29.696Z,1924.00
2018-03-17T06:14:29.734Z,2052.00
2018-03-17T06:15:29.683Z,2188.00
2018-03-17T06:16:29.680Z,2520.00
2018-03-17T06:17:29.672Z,3436.00
2018-03-17T06:18:29.667Z,4240.00
2018-03-17T06:19:29.661Z,5124.00
2018-03-17T06:20:29.656Z,4964.00
2018-03-17T06:21:29.651Z,5752.00
2018-03-17T06:22:29.644Z,6212.00
2018-03-17T06:23:29.640Z,6452.00
2018-03-17T06:24:29.634Z,4936.00
2018-03-17T06:25:29.630Z,4352.00
2018-03-17T06:26:29.625Z,5652.00
2018-03-17T06:27:29.618Z,6160.00
2018-03-17T06:28:29.615Z,6364.00
2018-03-17T06:29:29.611Z,8564.00
2018-03-17T06:30:29.604Z,7164.00
2018-03-17T06:31:29.598Z,8368.00
2018-03-17T06:32:29.592Z,7848.00
2018-03-17T06:33:29.589Z,6896.00
2018-03-17T06:34:29.583Z,9220.00
2018-03-17T06:35:29.578Z,11224.00
2018-03-17T06:36:29.591Z,9500.00
2018-03-17T06:37:29.570Z,8524.00
2018-03-17T06:38:29.572Z,10400.00
2018-03-17T06:39:29.562Z,13808.00
2018-03-17T06:40:29.556Z,13092.00
2018-03-17T06:41:29.551Z,9328.00
2018-03-17T06:42:29.548Z,9124.00
2018-03-17T06:43:29.542Z,9616.00
2018-03-17T06:44:29.548Z,9920.00
2018-03-17T06:45:29.534Z,8116.00
2018-03-17T06:46:29.529Z,10080.00
2018-03-17T06:47:29.527Z,12960.00
2018-03-17T06:48:29.528Z,19584.00
2018-03-17T06:49:29.518Z,21952.00
2018-03-17T06:50:29.562Z,17408.00
2018-03-17T06:51:29.510Z,16160.00
2018-03-17T06:52:29.507Z,15872.00
2018-03-17T06:53:29.504Z,18336.00
2018-03-17T06:54:29.500Z,23392.00
2018-03-17T06:55:29.498Z,29920.00
2018-03-17T06:56:29.496Z,37824.00
2018-03-17T06:57:29.492Z,55200.00
2018-03-17T06:58:29.490Z,63488.00
2018-03-17T06:59:29.490Z,53376.00
2018-03-17T07:00:29.488Z,53984.00
2018-03-17T07:01:29.487Z,58912.00
2018-03-17T07:02:29.488Z,63520.00
2018-03-17T07:03:29.491Z,54112.00
2018-03-17T07:04:29.492Z,52864.00
2018-03-17T07:05:29.493Z,58656.00
2018-03-17T07:06:29.497Z,58176.00
2018-03-17T07:07:29.501Z,45568.00
2018-03-17T07:08:29.503Z,20480.00
2018-03-17T07:09:29.505Z,32704.00
2018-03-17T07:10:29.510Z,55168.00
2018-03-17T07:11:29.516Z,46464.00
2018-03-17T07:12:29.519Z,41568.00
2018-03-17T07:13:29.523Z,43456.00
2018-03-17T07:14:29.530Z,47872.00
2018-03-17T07:15:29.535Z,37120.00
2018-03-17T07:16:29.541Z,45184.00
2018-03-17T07:17:29.550Z,58688.00
2018-03-17T07:18:29.550Z,63136.00
2018-03-17T07:19:29.555Z,71136.00
2018-03-17T07:20:29.562Z,50272.00
2018-03-17T07:21:29.565Z,17920.00
2018-03-17T07:22:29.572Z,12124.00
2018-03-17T07:23:29.579Z,13724.00
2018-03-17T07:24:29.588Z,11812.00
2018-03-17T07:25:29.589Z,8888.00
2018-03-17T07:26:29.593Z,9188.00
2018-03-17T07:27:29.599Z,18272.00
2018-03-17T07:28:29.604Z,40576.00
2018-03-17T07:29:29.607Z,63424.00
2018-03-17T07:30:29.613Z,82304.00
2018-03-17T07:31:29.620Z,73952.00
2018-03-17T07:32:29.625Z,63616.00
2018-03-17T07:33:29.632Z,66720.00
2018-03-17T07:34:29.638Z,69504.00
2018-03-17T07:35:29.642Z,67648.00
2018-03-17T07:36:29.647Z,55104.00
2018-03-17T07:37:29.652Z,21056.00
2018-03-17T07:38:29.658Z,9948.00
2018-03-17T07:39:29.664Z,9596.00
2018-03-17T07:40:29.671Z,20064.00
2018-03-17T07:41:29.675Z,45792.00
2018-03-17T07:42:29.681Z,46208.00
2018-03-17T07:43:29.686Z,53344.00
2018-03-17T07:44:29.691Z,67584.00
2018-03-17T07:45:29.697Z,59456.00
2018-03-17T07:46:29.701Z,50816.00
2018-03-17T07:47:29.707Z,48096.00
2018-03-17T07:48:29.714Z,31552.00
2018-03-17T07:49:29.717Z,23808.00
2018-03-17T07:50:29.723Z,23392.00
2018-03-17T07:51:29.729Z,22400.00
2018-03-17T07:52:29.734Z,18976.00
2018-03-17T07:53:29.739Z,16428.00
2018-03-17T07:54:29.749Z,26240.00
2018-03-17T07:55:29.751Z,37440.00
2018-03-17T07:56:29.755Z,24544.00
2018-03-17T07:57:29.760Z,37472.00
2018-03-17T07:58:29.766Z,46688.00
2018-03-17T07:59:29.770Z,56288.00
2018-03-17T08:00:29.781Z,51136.00
2018-03-17T08:01:29.780Z,41792.00
2018-03-17T08:02:29.786Z,56832.00
2018-03-17T08:03:29.792Z,40384.00
2018-03-17T08:04:29.797Z,31168.00
2018-03-17T08:05:29.802Z,24384.00
2018-03-17T08:06:29.808Z,21216.00
2018-03-17T08:07:29.812Z,28096.00
2018-03-17T08:08:29.819Z,44416.00
2018-03-17T08:09:29.824Z,43424.00
2018-03-17T08:10:29.828Z,30880.00
2018-03-17T08:11:29.833Z,42272.00
2018-03-17T08:12:29.837Z,56608.00
2018-03-17T08:13:29.841Z,59488.00
2018-03-17T08:14:29.885Z,37408.00
2018-03-17T08:15:29.856Z,37248.00
2018-03-17T08:16:29.857Z,45312.00
2018-03-17T08:17:29.863Z,27168.00
2018-03-17T08:18:29.868Z,16300.00
2018-03-17T08:19:29.876Z,18752.00
2018-03-17T08:20:29.879Z,22240.00
2018-03-17T08:21:29.884Z,33120.00
2018-03-17T08:22:29.887Z,25088.00
2018-03-17T08:23:29.892Z,27264.00
2018-03-17T08:24:29.898Z,29632.00
2018-03-17T08:25:29.902Z,30848.00
2018-03-17T08:26:29.907Z,35680.00
2018-03-17T08:27:29.913Z,39360.00
2018-03-17T08:28:29.915Z,38880.00
2018-03-17T08:29:29.918Z,39360.00
2018-03-17T08:30:29.923Z,44000.00
2018-03-17T08:31:29.928Z,45504.00
2018-03-17T08:32:29.932Z,47168.00
2018-03-17T08:33:29.936Z,51392.00
2018-03-17T08:34:29.941Z,40000.00
2018-03-17T08:35:29.944Z,30720.00
2018-03-17T08:36:29.949Z,33280.00
2018-03-17T08:37:29.954Z,18304.00
2018-03-17T08:38:29.957Z,13860.00
2018-03-17T08:39:30.011Z,16516.00
2018-03-17T08:40:29.966Z,19072.00
2018-03-17T08:41:29.968Z,14828.00
2018-03-17T08:42:29.974Z,16496.00
2018-03-17T08:43:29.977Z,15360.00
2018-03-17T08:44:29.981Z,12656.00
2018-03-17T08:45:29.983Z,24864.00
2018-03-17T08:46:29.987Z,27840.00
2018-03-17T08:47:29.990Z,16548.00
2018-03-17T08:48:29.995Z,18400.00
2018-03-17T08:49:29.996Z,26464.00
2018-03-17T08:50:29.999Z,35360.00
2018-03-17T08:51:30.004Z,28000.00
2018-03-17T08:52:30.007Z,10164.00
2018-03-17T08:53:30.008Z,22400.00
2018-03-17T08:54:30.012Z,31296.00
2018-03-17T08:55:30.016Z,14920.00
2018-03-17T08:56:30.321Z,14996.00
2018-03-17T08:57:30.020Z,42144.00
2018-03-17T08:58:30.023Z,67136.00
2018-03-17T08:59:30.027Z,62784.00
2018-03-17T09:00:30.035Z,55648.00
2018-03-17T09:01:30.033Z,51648.00
2018-03-17T09:02:30.039Z,56512.00
2018-03-17T09:03:30.043Z,53472.00
2018-03-17T09:04:30.049Z,31808.00
2018-03-17T09:05:30.054Z,31936.00
2018-03-17T09:06:30.058Z,30080.00
2018-03-17T09:07:30.066Z,39296.00
2018-03-17T09:08:30.071Z,51296.00
2018-03-17T09:09:30.078Z,34976.00
2018-03-17T09:10:30.083Z,42912.00
2018-03-17T09:11:30.089Z,67360.00
2018-03-17T09:12:30.096Z,65184.00
2018-03-17T09:13:30.101Z,66688.00
2018-03-17T09:14:30.110Z,62976.00
2018-03-17T09:15:30.169Z,50464.00
2018-03-17T09:16:30.126Z,48160.00
2018-03-17T09:17:30.135Z,36352.00
2018-03-17T09:18:30.142Z,14812.00
2018-03-17T09:19:30.150Z,20224.00
2018-03-17T09:20:30.157Z,19904.00
2018-03-17T09:21:30.164Z,13720.00
2018-03-17T09:22:30.173Z,11728.00
2018-03-17T09:23:30.182Z,18336.00
2018-03-17T09:24:30.189Z,20928.00
2018-03-17T09:25:30.191Z,25184.00
2018-03-17T09:26:30.199Z,33248.00
2018-03-17T09:27:30.204Z,31904.00
2018-03-17T09:28:30.211Z,30336.00
2018-03-17T09:29:30.264Z,27200.00
2018-03-17T09:30:30.220Z,30688.00
2018-03-17T09:31:30.225Z,36000.00
2018-03-17T09:32:30.232Z,34560.00
2018-03-17T09:33:30.236Z,29696.00
2018-03-17T09:34:30.243Z,35456.00
2018-03-17T09:35:30.249Z,40832.00
2018-03-17T09:36:30.254Z,36352.00
2018-03-17T09:37:30.266Z,33056.00
2018-03-17T09:38:30.264Z,20128.00
2018-03-17T09:39:30.270Z,13364.00
2018-03-17T09:40:30.276Z,15476.00
2018-03-17T09:41:30.280Z,21024.00
2018-03-17T09:42:30.287Z,27552.00
2018-03-17T09:43:30.290Z,36736.00
2018-03-17T09:44:30.296Z,38400.00
2018-03-17T09:45:30.302Z,41600.00
2018-03-17T09:46:30.305Z,19840.00
2018-03-17T09:47:30.311Z,14684.00
2018-03-17T09:48:30.318Z,35808.00
2018-03-17T09:49:30.320Z,25952.00
2018-03-17T09:50:30.331Z,13552.00
2018-03-17T09:51:30.331Z,20320.00
2018-03-17T09:52:30.337Z,14236.00
2018-03-17T09:53:30.341Z,23808.00
2018-03-17T09:54:30.345Z,13308.00
2018-03-17T09:55:30.351Z,15596.00
2018-03-17T09:56:30.356Z,36832.00
2018-03-17T09:57:30.359Z,11632.00
2018-03-17T09:58:30.364Z,10284.00
2018-03-17T09:59:30.369Z,10968.00
2018-03-17T10:00:30.377Z,11772.00
2018-03-17T10:01:30.376Z,12116.00
2018-03-17T10:02:30.380Z,12640.00
2018-03-17T10:03:30.392Z,49888.00
2018-03-17T10:04:30.388Z,22336.00
2018-03-17T10:05:30.389Z,12580.00
2018-03-17T10:06:30.394Z,12488.00
2018-03-17T10:07:30.398Z,13816.00
2018-03-17T10:08:30.401Z,18752.00
2018-03-17T10:09:30.404Z,19808.00
2018-03-17T10:10:30.406Z,12576.00
2018-03-17T10:11:30.411Z,12580.00
2018-03-17T10:12:30.415Z,9528.00
2018-03-17T10:13:30.417Z,9052.00
2018-03-17T10:14:30.421Z,9144.00
2018-03-17T10:15:30.423Z,8424.00
2018-03-17T10:16:30.427Z,8196.00
2018-03-17T10:17:30.429Z,8268.00
2018-03-17T10:18:30.431Z,8840.00
2018-03-17T10:19:30.434Z,7472.00
2018-03-17T10:20:30.438Z,6516.00
2018-03-17T10:21:30.440Z,6224.00
2018-03-17T10:22:30.443Z,6188.00
2018-03-17T10:23:30.449Z,6396.00
2018-03-17T10:24:30.449Z,6556.00
2018-03-17T10:25:30.450Z,6888.00
2018-03-17T10:26:30.456Z,7196.00
2018-03-17T10:27:30.454Z,7564.00
2018-03-17T10:28:30.477Z,8092.00
2018-03-17T10:29:30.478Z,8668.00
2018-03-17T10:30:30.460Z,8764.00
2018-03-17T10:31:30.461Z,8932.00
2018-03-17T10:32:30.464Z,9264.00
2018-03-17T10:33:30.465Z,9516.00
2018-03-17T10:34:30.467Z,9416.00
2018-03-17T10:35:30.470Z,9252.00
2018-03-17T10:36:30.470Z,9576.00
2018-03-17T10:37:30.472Z,9452.00
2018-03-17T10:38:30.473Z,9064.00
2018-03-17T10:39:30.475Z,8704.00
2018-03-17T10:40:30.478Z,7512.00
2018-03-17T10:41:30.481Z,7148.00
2018-03-17T10:42:30.479Z,7112.00
2018-03-17T10:43:30.482Z,6540.00
2018-03-17T10:44:30.484Z,5744.00
2018-03-17T10:45:30.486Z,5240.00
2018-03-17T10:46:30.487Z,4972.00
2018-03-17T10:47:30.492Z,4732.00
2018-03-17T10:48:30.491Z,4512.00
2018-03-17T10:49:30.490Z,4372.00
2018-03-17T10:50:30.493Z,4216.00
2018-03-17T10:51:30.493Z,4100.00
2018-03-17T10:52:30.495Z,4080.00
2018-03-17T10:53:30.495Z,4040.00
2018-03-17T10:54:30.499Z,4164.00
2018-03-17T10:55:30.498Z,4448.00
2018-03-17T10:56:30.501Z,4760.00
2018-03-17T10:57:30.498Z,4956.00
2018-03-17T10:58:30.500Z,5344.00
2018-03-17T10:59:30.500Z,5748.00
2018-03-17T11:00:30.500Z,6132.00
2018-03-17T11:01:30.502Z,6624.00
2018-03-17T11:02:30.503Z,6720.00
2018-03-17T11:03:30.503Z,6784.00
2018-03-17T11:04:30.503Z,7200.00
2018-03-17T11:05:30.504Z,6544.00
2018-03-17T11:06:30.503Z,6584.00
2018-03-17T11:07:30.505Z,6912.00
2018-03-17T11:08:30.505Z,6968.00
2018-03-17T11:09:30.504Z,6924.00
2018-03-17T11:10:30.506Z,6780.00
2018-03-17T11:11:30.513Z,6540.00
2018-03-17T11:12:30.508Z,6252.00
2018-03-17T11:13:30.506Z,5572.00
2018-03-17T11:14:30.507Z,5276.00
2018-03-17T11:15:30.508Z,4952.00
2018-03-17T11:16:30.507Z,4896.00
2018-03-17T11:17:30.509Z,5140.00
2018-03-17T11:18:30.509Z,5592.00
2018-03-17T11:19:30.510Z,5912.00
2018-03-17T11:20:30.510Z,6064.00
2018-03-17T11:21:30.510Z,5940.00
2018-03-17T11:22:30.512Z,5672.00
2018-03-17T11:23:30.511Z,5532.00
2018-03-17T11:24:30.511Z,5360.00
2018-03-17T11:25:30.515Z,5020.00
2018-03-17T11:26:30.509Z,4780.00
2018-03-17T11:27:30.511Z,4732.00
2018-03-17T11:28:30.569Z,4456.00
2018-03-17T11:29:30.510Z,4508.00
2018-03-17T11:30:30.511Z,4884.00
2018-03-17T11:31:30.511Z,5168.00
2018-03-17T11:32:30.511Z,5176.00
2018-03-17T11:33:30.510Z,5424.00
2018-03-17T11:34:30.511Z,5928.00
2018-03-17T11:35:30.511Z,6688.00
2018-03-17T11:36:30.512Z,7640.00
2018-03-17T11:37:30.512Z,8172.00
2018-03-17T11:38:30.511Z,11752.00
2018-03-17T11:39:30.513Z,13264.00
2018-03-17T11:40:30.512Z,7480.00
2018-03-17T11:41:30.518Z,6980.00
2018-03-17T11:42:30.515Z,6188.00
2018-03-17T11:43:30.514Z,6016.00
2018-03-17T11:44:30.516Z,6220.00
2018-03-17T11:45:30.514Z,7124.00
2018-03-17T11:46:30.797Z,6468.00
2018-03-17T11:47:30.516Z,6028.00
2018-03-17T11:48:30.516Z,6064.00
2018-03-17T11:49:30.515Z,5940.00
2018-03-17T11:50:30.515Z,5628.00
2018-03-17T11:51:30.518Z,5372.00
2018-03-17T11:52:30.518Z,5072.00
2018-03-17T11:53:30.516Z,4988.00
2018-03-17T11:54:30.518Z,4800.00
2018-03-17T11:55:30.521Z,4972.00
2018-03-17T11:56:30.519Z,5432.00
2018-03-17T11:57:30.517Z,5980.00
2018-03-17T11:58:30.518Z,6640.00
2018-03-17T11:59:30.517Z,7296.00
2018-03-17T12:00:30.518Z,7900.00
2018-03-17T12:01:30.517Z,8200.00
2018-03-17T12:02:30.516Z,8228.00
2018-03-17T12:03:30.517Z,7980.00
2018-03-17T12:04:30.517Z,7612.00
2018-03-17T12:05:30.516Z,7784.00
2018-03-17T12:06:30.516Z,23648.00
2018-03-17T12:07:30.517Z,7400.00
2018-03-17T12:08:30.517Z,7312.00
2018-03-17T12:09:30.515Z,7268.00
2018-03-17T12:10:30.515Z,6516.00
2018-03-17T12:11:30.516Z,5540.00
2018-03-17T12:12:30.517Z,4784.00
2018-03-17T12:13:30.515Z,4512.00
2018-03-17T12:14:30.516Z,4556.00
2018-03-17T12:15:30.517Z,4816.00
2018-03-17T12:16:30.515Z,5016.00
2018-03-17T12:17:30.520Z,5396.00
2018-03-17T12:18:30.515Z,5516.00
2018-03-17T12:19:30.515Z,5192.00
2018-03-17T12:20:30.518Z,4664.00
2018-03-17T12:21:30.515Z,4308.00
2018-03-17T12:22:30.515Z,4132.00
2018-03-17T12:23:30.515Z,3992.00
2018-03-17T12:24:30.544Z,3864.00
2018-03-17T12:25:30.513Z,3828.00
2018-03-17T12:26:30.512Z,4460.00
2018-03-17T12:27:30.512Z,5032.00
2018-03-17T12:28:30.513Z,5628.00
2018-03-17T12:29:30.511Z,6212.00